CheckWX is a tool to help pilots better visualize weather data.  It is not intended as a substitute for an official pre-flight weather briefing.

21:08:39 UTC

KMLU METAR
Monroe Regional Airport
Monroe, Louisiana, USA
Current

16 mins ago

KMLU 252053Z AUTO VRB03KT 10SM CLR 29/21 A2977 RMK AO2 SLP080 60001 T02940206 58031
Observed
May-25 @ 20:53 UTC
Wind
  • Variable at 3 KTS
Visibility
Flight Rules
VFR
Cloud Levels
  • Clear skies
Temperature
29°C / 84°F
Dewpoint
21°C / 70°F
Humidity
62%
Altimeter
29.77" Hg
Pressure
1008.12 hPa
Previous

1 hour ago

KMLU 251953Z 14008G15KT 100V170 10SM FEW037 28/19 A2981 RMK AO2 RAB29E41 SLP092 P0001 T02830189
Observed
May-25 @ 19:53 UTC
Wind
  • 140° at 8 KTS
  • Gusting to 15 KTS
Visibility
Flight Rules
VFR
Cloud Levels
  • Few at 3,700' AGL
Temperature
28°C / 82°F
Dewpoint
19°C / 66°F
Humidity
58%
Altimeter
29.81" Hg
Pressure
1009.52 hPa
Current Rain
0.01"
Previous

2 hours ago

KMLU 251853Z 12008KT 080V160 10SM SCT040 BKN050 31/21 A2985 RMK AO2 SLP105 T03110206
Observed
May-25 @ 18:53 UTC
Wind
  • 120° at 8 KTS
Visibility
Flight Rules
VFR
Cloud Levels
  • Scattered at 4,000' AGL
  • Broken at 5,000' AGL
Temperature
31°C / 88°F
Dewpoint
21°C / 70°F
Humidity
55%
Altimeter
29.85" Hg
Pressure
1010.82 hPa